sensor_id;sensor_type;location;lat;lon;timestamp;P1;durP1;ratioP1;P2;durP2;ratioP2
11988;SDS011;6054;50.966;7.094;2022-09-13T17:58:17;5.18;;;2.60;;
11988;SDS011;6054;50.966;7.094;2022-09-13T18:00:44;5.03;;;2.60;;
11988;SDS011;6054;50.966;7.094;2022-09-13T18:03:14;4.85;;;2.55;;
11988;SDS011;6054;50.966;7.094;2022-09-13T18:05:41;6.60;;;2.70;;
11988;SDS011;6054;50.966;7.094;2022-09-13T18:08:08;6.63;;;2.78;;
11988;SDS011;6054;50.966;7.094;2022-09-13T18:10:35;6.82;;;2.95;;
11988;SDS011;6054;50.966;7.094;2022-09-13T18:13:02;5.82;;;2.53;;
11988;SDS011;6054;50.966;7.094;2022-09-13T18:15:30;6.80;;;2.50;;
11988;SDS011;6054;50.966;7.094;2022-09-13T18:17:57;4.78;;;2.80;;
11988;SDS011;6054;50.966;7.094;2022-09-13T18:20:24;7.13;;;3.08;;
11988;SDS011;6054;50.966;7.094;2022-09-13T18:22:51;5.55;;;2.80;;
11988;SDS011;6054;50.966;7.094;2022-09-13T18:25:17;3.45;;;3.05;;
11988;SDS011;6054;50.966;7.094;2022-09-13T18:27:47;5.20;;;2.88;;
11988;SDS011;6054;50.966;7.094;2022-09-13T18:30:14;5.45;;;3.10;;
11988;SDS011;6054;50.966;7.094;2022-09-13T18:32:42;3.92;;;3.05;;
11988;SDS011;6054;50.966;7.094;2022-09-13T18:35:09;4.78;;;2.92;;
11988;SDS011;6054;50.966;7.094;2022-09-13T18:37:36;3.17;;;2.67;;
11988;SDS011;6054;50.966;7.094;2022-09-13T18:40:03;4.07;;;3.33;;
11988;SDS011;6054;50.966;7.094;2022-09-13T18:42:33;4.38;;;3.22;;
11988;SDS011;6054;50.966;7.094;2022-09-13T18:44:59;7.53;;;3.10;;
11988;SDS011;6054;50.966;7.094;2022-09-13T18:47:26;4.97;;;3.00;;
11988;SDS011;6054;50.966;7.094;2022-09-13T18:49:54;3.97;;;3.00;;
11988;SDS011;6054;50.966;7.094;2022-09-13T18:52:21;4.18;;;3.28;;
11988;SDS011;6054;50.966;7.094;2022-09-13T18:54:48;7.55;;;3.13;;
11988;SDS011;6054;50.966;7.094;2022-09-13T18:57:15;11.00;;;3.60;;
11988;SDS011;6054;50.966;7.094;2022-09-13T18:59:42;4.47;;;3.08;;
11988;SDS011;6054;50.966;7.094;2022-09-13T19:02:09;6.32;;;3.70;;
11988;SDS011;6054;50.966;7.094;2022-09-13T19:04:36;6.18;;;3.65;;
11988;SDS011;6054;50.966;7.094;2022-09-13T19:07:05;8.85;;;3.72;;
11988;SDS011;6054;50.966;7.094;2022-09-13T19:09:32;7.63;;;3.53;;
11988;SDS011;6054;50.966;7.094;2022-09-13T19:12:00;7.70;;;3.95;;
11988;SDS011;6054;50.966;7.094;2022-09-13T19:14:27;10.07;;;3.42;;
11988;SDS011;6054;50.966;7.094;2022-09-13T19:16:55;4.00;;;3.58;;
11988;SDS011;6054;50.966;7.094;2022-09-13T19:19:24;4.78;;;4.18;;
11988;SDS011;6054;50.966;7.094;2022-09-13T19:21:51;4.07;;;3.67;;
11988;SDS011;6054;50.966;7.094;2022-09-13T19:24:19;5.97;;;4.05;;
11988;SDS011;6054;50.966;7.094;2022-09-13T19:26:46;4.05;;;3.55;;
11988;SDS011;6054;50.966;7.094;2022-09-13T19:29:15;4.82;;;4.03;;
11988;SDS011;6054;50.966;7.094;2022-09-13T19:31:43;9.95;;;4.05;;
11988;SDS011;6054;50.966;7.094;2022-09-13T19:34:12;8.00;;;4.32;;
11988;SDS011;6054;50.966;7.094;2022-09-13T19:36:39;6.78;;;4.35;;
11988;SDS011;6054;50.966;7.094;2022-09-13T19:39:08;5.35;;;4.20;;
11988;SDS011;6054;50.966;7.094;2022-09-13T19:41:37;5.95;;;4.15;;
11988;SDS011;6054;50.966;7.094;2022-09-13T19:44:04;8.48;;;4.65;;
11988;SDS011;6054;50.966;7.094;2022-09-13T19:46:33;5.38;;;4.28;;
11988;SDS011;6054;50.966;7.094;2022-09-13T19:49:02;6.40;;;4.40;;
11988;SDS011;6054;50.966;7.094;2022-09-13T19:51:30;5.70;;;4.32;;
11988;SDS011;6054;50.966;7.094;2022-09-13T19:53:58;5.50;;;4.25;;
11988;SDS011;6054;50.966;7.094;2022-09-13T19:56:26;9.52;;;4.85;;
11988;SDS011;6054;50.966;7.094;2022-09-13T19:58:58;7.85;;;4.40;;
11988;SDS011;6054;50.966;7.094;2022-09-13T20:01:26;6.70;;;4.75;;
11988;SDS011;6054;50.966;7.094;2022-09-13T20:03:55;6.95;;;5.22;;
11988;SDS011;6054;50.966;7.094;2022-09-13T20:06:24;8.88;;;5.07;;
11988;SDS011;6054;50.966;7.094;2022-09-13T20:08:52;7.03;;;5.20;;
11988;SDS011;6054;50.966;7.094;2022-09-13T20:11:22;8.20;;;5.00;;
11988;SDS011;6054;50.966;7.094;2022-09-13T20:13:50;7.70;;;5.20;;
11988;SDS011;6054;50.966;7.094;2022-09-13T20:16:19;8.75;;;4.60;;
11988;SDS011;6054;50.966;7.094;2022-09-13T20:18:47;7.97;;;5.03;;
11988;SDS011;6054;50.966;7.094;2022-09-13T20:21:15;7.10;;;5.30;;
11988;SDS011;6054;50.966;7.094;2022-09-13T20:23:42;6.70;;;5.55;;
11988;SDS011;6054;50.966;7.094;2022-09-13T20:26:13;7.78;;;5.18;;
11988;SDS011;6054;50.966;7.094;2022-09-13T20:28:43;8.95;;;5.40;;
11988;SDS011;6054;50.966;7.094;2022-09-13T20:31:11;5.82;;;5.30;;
11988;SDS011;6054;50.966;7.094;2022-09-13T20:33:39;8.60;;;5.93;;
11988;SDS011;6054;50.966;7.094;2022-09-13T20:36:07;7.63;;;6.00;;
11988;SDS011;6054;50.966;7.094;2022-09-13T20:38:35;10.30;;;5.90;;
11988;SDS011;6054;50.966;7.094;2022-09-13T20:41:02;9.45;;;5.57;;
11988;SDS011;6054;50.966;7.094;2022-09-13T20:43:30;5.93;;;5.40;;
11988;SDS011;6054;50.966;7.094;2022-09-13T20:45:57;8.38;;;5.97;;
11988;SDS011;6054;50.966;7.094;2022-09-13T20:48:24;7.28;;;6.20;;
11988;SDS011;6054;50.966;7.094;2022-09-13T20:50:56;9.63;;;5.97;;
11988;SDS011;6054;50.966;7.094;2022-09-13T20:53:24;7.35;;;5.57;;
11988;SDS011;6054;50.966;7.094;2022-09-13T20:55:51;7.30;;;6.60;;
11988;SDS011;6054;50.966;7.094;2022-09-13T20:58:18;13.15;;;6.20;;
11988;SDS011;6054;50.966;7.094;2022-09-13T21:00:46;11.50;;;6.65;;
11988;SDS011;6054;50.966;7.094;2022-09-13T21:03:13;7.43;;;6.13;;
11988;SDS011;6054;50.966;7.094;2022-09-13T21:05:40;9.73;;;6.88;;
11988;SDS011;6054;50.966;7.094;2022-09-13T21:08:08;9.00;;;6.05;;
11988;SDS011;6054;50.966;7.094;2022-09-13T21:10:57;9.27;;;6.38;;
11988;SDS011;6054;50.966;7.094;2022-09-13T21:13:27;7.45;;;6.50;;
11988;SDS011;6054;50.966;7.094;2022-09-13T21:15:54;8.13;;;6.25;;
11988;SDS011;6054;50.966;7.094;2022-09-13T21:18:21;9.45;;;6.70;;
11988;SDS011;6054;50.966;7.094;2022-09-13T21:20:53;8.70;;;6.65;;
11988;SDS011;6054;50.966;7.094;2022-09-13T21:23:21;8.52;;;6.38;;
11988;SDS011;6054;50.966;7.094;2022-09-13T21:25:48;7.10;;;6.35;;
11988;SDS011;6054;50.966;7.094;2022-09-13T21:28:14;8.98;;;6.60;;
11988;SDS011;6054;50.966;7.094;2022-09-13T21:30:41;9.60;;;6.60;;
11988;SDS011;6054;50.966;7.094;2022-09-13T21:33:08;9.13;;;7.07;;
11988;SDS011;6054;50.966;7.094;2022-09-13T21:35:35;9.93;;;7.18;;
11988;SDS011;6054;50.966;7.094;2022-09-13T21:38:03;8.65;;;7.50;;
11988;SDS011;6054;50.966;7.094;2022-09-13T21:40:31;11.63;;;7.43;;
11988;SDS011;6054;50.966;7.094;2022-09-13T21:42:58;9.70;;;6.50;;
11988;SDS011;6054;50.966;7.094;2022-09-13T21:45:25;8.15;;;7.35;;
11988;SDS011;6054;50.966;7.094;2022-09-13T21:47:52;8.60;;;7.20;;
11988;SDS011;6054;50.966;7.094;2022-09-13T21:50:18;8.85;;;7.72;;
11988;SDS011;6054;50.966;7.094;2022-09-13T21:52:46;10.23;;;7.47;;
11988;SDS011;6054;50.966;7.094;2022-09-13T21:55:12;11.27;;;7.80;;
11988;SDS011;6054;50.966;7.094;2022-09-13T21:57:42;10.23;;;7.40;;
11988;SDS011;6054;50.966;7.094;2022-09-13T22:00:10;9.27;;;7.63;;
11988;SDS011;6054;50.966;7.094;2022-09-13T22:02:38;9.57;;;8.30;;
11988;SDS011;6054;50.966;7.094;2022-09-13T22:05:07;9.40;;;7.32;;
11988;SDS011;6054;50.966;7.094;2022-09-13T22:07:34;10.35;;;8.32;;
11988;SDS011;6054;50.966;7.094;2022-09-13T22:10:00;9.57;;;8.10;;
11988;SDS011;6054;50.966;7.094;2022-09-13T22:12:27;10.52;;;8.40;;
11988;SDS011;6054;50.966;7.094;2022-09-13T22:14:55;9.40;;;7.97;;
11988;SDS011;6054;50.966;7.094;2022-09-13T22:17:22;13.02;;;8.13;;
11988;SDS011;6054;50.966;7.094;2022-09-13T22:19:48;11.18;;;8.82;;
11988;SDS011;6054;50.966;7.094;2022-09-13T22:22:15;10.10;;;8.43;;
11988;SDS011;6054;50.966;7.094;2022-09-13T22:24:42;11.07;;;8.77;;
11988;SDS011;6054;50.966;7.094;2022-09-13T22:27:10;11.57;;;9.10;;
11988;SDS011;6054;50.966;7.094;2022-09-13T22:29:37;13.85;;;9.75;;
11988;SDS011;6054;50.966;7.094;2022-09-13T22:32:05;14.82;;;9.93;;
11988;SDS011;6054;50.966;7.094;2022-09-13T22:34:32;14.57;;;9.85;;
11988;SDS011;6054;50.966;7.094;2022-09-13T22:36:59;16.95;;;9.82;;
11988;SDS011;6054;50.966;7.094;2022-09-13T22:39:27;12.75;;;9.43;;
11988;SDS011;6054;50.966;7.094;2022-09-13T22:41:54;11.90;;;10.00;;
11988;SDS011;6054;50.966;7.094;2022-09-13T22:44:21;14.55;;;9.68;;
11988;SDS011;6054;50.966;7.094;2022-09-13T22:46:47;14.75;;;10.18;;
11988;SDS011;6054;50.966;7.094;2022-09-13T22:49:16;20.70;;;11.57;;
11988;SDS011;6054;50.966;7.094;2022-09-13T22:51:44;18.98;;;12.05;;
11988;SDS011;6054;50.966;7.094;2022-09-13T22:54:12;16.48;;;11.43;;
11988;SDS011;6054;50.966;7.094;2022-09-13T22:56:40;14.30;;;11.05;;
11988;SDS011;6054;50.966;7.094;2022-09-13T22:59:07;16.90;;;11.40;;
11988;SDS011;6054;50.966;7.094;2022-09-13T23:01:37;15.95;;;12.48;;
11988;SDS011;6054;50.966;7.094;2022-09-13T23:04:04;17.30;;;12.07;;
11988;SDS011;6054;50.966;7.094;2022-09-13T23:06:33;16.83;;;11.48;;
11988;SDS011;6054;50.966;7.094;2022-09-13T23:09:01;17.13;;;12.40;;
11988;SDS011;6054;50.966;7.094;2022-09-13T23:11:30;19.48;;;11.98;;
11988;SDS011;6054;50.966;7.094;2022-09-13T23:13:59;17.85;;;11.93;;
11988;SDS011;6054;50.966;7.094;2022-09-13T23:16:27;16.10;;;12.45;;
11988;SDS011;6054;50.966;7.094;2022-09-13T23:18:56;19.88;;;12.73;;
11988;SDS011;6054;50.966;7.094;2022-09-13T23:21:24;19.48;;;13.15;;
11988;SDS011;6054;50.966;7.094;2022-09-13T23:23:54;20.30;;;13.60;;
11988;SDS011;6054;50.966;7.094;2022-09-13T23:26:21;19.63;;;14.85;;
11988;SDS011;6054;50.966;7.094;2022-09-13T23:28:50;17.27;;;13.85;;
11988;SDS011;6054;50.966;7.094;2022-09-13T23:31:20;21.65;;;14.27;;
11988;SDS011;6054;50.966;7.094;2022-09-13T23:33:48;20.02;;;13.90;;
11988;SDS011;6054;50.966;7.094;2022-09-13T23:36:17;22.02;;;13.98;;
11988;SDS011;6054;50.966;7.094;2022-09-13T23:38:46;21.15;;;13.45;;
11988;SDS011;6054;50.966;7.094;2022-09-13T23:41:16;23.40;;;15.50;;
11988;SDS011;6054;50.966;7.094;2022-09-13T23:43:43;22.42;;;14.43;;
11988;SDS011;6054;50.966;7.094;2022-09-13T23:46:10;21.20;;;13.43;;
11988;SDS011;6054;50.966;7.094;2022-09-13T23:48:37;25.42;;;13.50;;
11988;SDS011;6054;50.966;7.094;2022-09-13T23:51:09;21.27;;;13.07;;
11988;SDS011;6054;50.966;7.094;2022-09-13T23:53:37;23.35;;;13.75;;
11988;SDS011;6054;50.966;7.094;2022-09-13T23:56:04;22.92;;;14.52;;
11988;SDS011;6054;50.966;7.094;2022-09-13T23:58:33;26.17;;;14.40;;
